CheckWX is a tool to help pilots better visualize weather data.  It is not intended as a substitute for an official pre-flight weather briefing.

09:45:33 UTC

KATL METAR
Hartsfield - Jackson Atlanta International Airport
Atlanta, Georgia, USA
Current

54 mins ago

KATL 220852Z 00000KT 10SM FEW060 FEW085 23/17 A3004 RMK AO2 SLP163 T02330172 53012
Observed
May-22 @ 08:52 UTC
Visibility
10 SM
Flight Rules
VFR
Cloud Levels
  • Few at 6,000' AGL
  • Few at 8,500' AGL
Temperature
23°C / 73°F
Dewpoint
17°C / 63°F
Humidity
69%
Altimeter
30.04" Hg
Pressure
1017.32 hPa
Previous

2 hours ago

KATL 220752Z 21003KT 10SM FEW060 FEW085 24/18 A3002 RMK AO2 SLP153 T02390178
Observed
May-22 @ 07:52 UTC
Wind
  • 210° at 3 KTS
Visibility
10 SM
Flight Rules
VFR
Cloud Levels
  • Few at 6,000' AGL
  • Few at 8,500' AGL
Temperature
24°C / 75°F
Dewpoint
18°C / 64°F
Humidity
69%
Altimeter
30.02" Hg
Pressure
1016.62 hPa
Previous

3 hours ago

KATL 220652Z 16003KT 10SM SCT060 SCT085 24/18 A3000 RMK AO2 SLP148 T02440178
Observed
May-22 @ 06:52 UTC
Wind
  • 160° at 3 KTS
Visibility
10 SM
Flight Rules
VFR
Cloud Levels
  • Scattered at 6,000' AGL
  • Scattered at 8,500' AGL
Temperature
24°C / 75°F
Dewpoint
18°C / 64°F
Humidity
69%
Altimeter
30" Hg
Pressure
1015.92 hPa